Auburn, ME

8:14 AM EST on January 27, 2015 (GMT -0500)
Riverside | Change Station
CLOSE
Current Station
Personal Weather Station
Location: Lewiston, ME
Elevation: 217 ft
Nearby Weather Stations
Active Advisory: Blizzard Warning Active Notice: Public Information Statement

Elev 217 ft 44.11 °N, 70.21 °W | Updated 9 seconds ago

Snow
Snow
8.8 °F
Feels Like -2 °F
N
7.0
Wind Variable Wind from SSW
Gusts 7.0 mph

Today
High -- | Low -- °F
--% Chance of Precip.
Yesterday
High -- | Low -- °F
Precip. -- in
7:04 AM 4:43 PM
First Quarter, 54% visible
Pressure 29.79 in
Visibility 0.2 miles
Clouds
Windchill -2 °F
Dew Point 5 °F
Humidity 83%
Rainfall 0.00 in
Snow Depth Not available.
UV Not available.
Pollen .10 out of 12
Air Quality Not available.
Flu Activity Not available.
METAR KAUG 271253Z AUTO 02026G39KT 1/4SM +SN FZFG VV004 M14/M17 A2976 RMK AO2 PK WND 02039/1249 PRESFR SLP086 P0000 T11441167

More Conditions Fewer Conditions

Pressure 29.79 in
Visibility 0.2 miles
Clouds
Windchill -2 °F
Dew Point 5 °F
Humidity 83%
Rainfall 0.00 in
Snow Depth Not available.
UV Not available.
Pollen .10 out of 12
Air Quality Not available.
Flu Activity Not available.
METAR KAUG 271253Z AUTO 02026G39KT 1/4SM +SN FZFG VV004 M14/M17 A2976 RMK AO2 PK WND 02039/1249 PRESFR SLP086 P0000 T11441167

More Conditions Fewer Conditions

10-Day Weather Forecast

Almanac

Astronomy

Jan. 27, 2015 Rise Set
Actual Time
Civil Twilight
Nautical Twilight
Astronomical Twilight
Moon
Length of Visible Light
Length of Day
Tomorrow will be .
, % of the Moon is Illuminated

Today's Extremes

State Highs State Lows

Community

WunderPhotos

Upload Photos

1,790,607 photos uploaded!

WunderBlogs® & News

Nearby

Air Quality

  Air Quality AQ Index Pollutant
Not available.

Snow Depth

Station Depth Elevation

Earthquake Activity

City Distance Mag. Time & Date
Minimum magnitude displayed is 2.5.

Coastal Water Temperatures

Place Temperature

Nearby Weather Stations